sensor_id;sensor_type;location;lat;lon;timestamp;temperature;humidity
39675;DHT22;27790;50.840;4.386;2022-11-15T00:02:08;13.90;99.90
39675;DHT22;27790;50.840;4.386;2022-11-15T00:04:33;13.90;99.90
39675;DHT22;27790;50.840;4.386;2022-11-15T00:06:59;13.90;99.90
39675;DHT22;27790;50.840;4.386;2022-11-15T00:09:24;13.90;99.90
39675;DHT22;27790;50.840;4.386;2022-11-15T00:11:51;13.90;99.90
39675;DHT22;27790;50.840;4.386;2022-11-15T00:14:17;13.90;99.90
39675;DHT22;27790;50.840;4.386;2022-11-15T00:16:43;13.90;99.90
39675;DHT22;27790;50.840;4.386;2022-11-15T00:19:09;13.90;99.90
39675;DHT22;27790;50.840;4.386;2022-11-15T00:21:34;13.90;99.90
39675;DHT22;27790;50.840;4.386;2022-11-15T00:24:00;13.90;99.90
39675;DHT22;27790;50.840;4.386;2022-11-15T00:26:25;13.90;99.90
39675;DHT22;27790;50.840;4.386;2022-11-15T00:28:54;13.80;99.90
39675;DHT22;27790;50.840;4.386;2022-11-15T00:31:19;13.80;99.90
39675;DHT22;27790;50.840;4.386;2022-11-15T00:33:45;13.80;99.90
39675;DHT22;27790;50.840;4.386;2022-11-15T00:36:11;13.90;99.90
39675;DHT22;27790;50.840;4.386;2022-11-15T00:38:39;13.90;99.90
39675;DHT22;27790;50.840;4.386;2022-11-15T00:41:05;13.90;99.90
39675;DHT22;27790;50.840;4.386;2022-11-15T00:43:32;14.00;99.90
39675;DHT22;27790;50.840;4.386;2022-11-15T00:45:58;14.00;99.90
39675;DHT22;27790;50.840;4.386;2022-11-15T00:48:24;14.00;99.90
39675;DHT22;27790;50.840;4.386;2022-11-15T00:50:50;14.10;99.90
39675;DHT22;27790;50.840;4.386;2022-11-15T00:53:16;14.00;99.90
39675;DHT22;27790;50.840;4.386;2022-11-15T00:55:42;14.10;99.90
39675;DHT22;27790;50.840;4.386;2022-11-15T00:58:08;14.10;99.90
39675;DHT22;27790;50.840;4.386;2022-11-15T01:00:33;14.10;99.90
39675;DHT22;27790;50.840;4.386;2022-11-15T01:03:00;14.10;99.90
39675;DHT22;27790;50.840;4.386;2022-11-15T01:05:26;14.10;99.90
39675;DHT22;27790;50.840;4.386;2022-11-15T01:07:55;14.20;99.90
39675;DHT22;27790;50.840;4.386;2022-11-15T01:10:22;14.20;99.90
39675;DHT22;27790;50.840;4.386;2022-11-15T01:12:48;14.20;99.90
39675;DHT22;27790;50.840;4.386;2022-11-15T01:15:14;14.20;99.90
39675;DHT22;27790;50.840;4.386;2022-11-15T01:17:39;14.20;99.90
39675;DHT22;27790;50.840;4.386;2022-11-15T01:20:06;14.20;99.90
39675;DHT22;27790;50.840;4.386;2022-11-15T01:22:31;14.20;99.90
39675;DHT22;27790;50.840;4.386;2022-11-15T01:24:57;14.10;99.90
39675;DHT22;27790;50.840;4.386;2022-11-15T01:27:22;14.10;99.90
39675;DHT22;27790;50.840;4.386;2022-11-15T01:29:48;14.10;99.90
39675;DHT22;27790;50.840;4.386;2022-11-15T01:32:14;14.10;99.90
39675;DHT22;27790;50.840;4.386;2022-11-15T01:34:39;14.10;99.90
39675;DHT22;27790;50.840;4.386;2022-11-15T01:37:05;14.10;99.90
39675;DHT22;27790;50.840;4.386;2022-11-15T01:39:30;14.10;99.90
39675;DHT22;27790;50.840;4.386;2022-11-15T01:41:56;14.10;99.90
39675;DHT22;27790;50.840;4.386;2022-11-15T01:47:17;14.10;99.90
39675;DHT22;27790;50.840;4.386;2022-11-15T01:49:59;14.10;99.90
39675;DHT22;27790;50.840;4.386;2022-11-15T01:52:28;14.10;99.90
39675;DHT22;27790;50.840;4.386;2022-11-15T01:55:02;14.10;99.90
39675;DHT22;27790;50.840;4.386;2022-11-15T01:57:30;14.10;99.90
39675;DHT22;27790;50.840;4.386;2022-11-15T01:59:57;14.00;99.90
39675;DHT22;27790;50.840;4.386;2022-11-15T02:02:24;14.00;99.90
39675;DHT22;27790;50.840;4.386;2022-11-15T02:04:50;14.00;99.90
39675;DHT22;27790;50.840;4.386;2022-11-15T02:07:17;14.10;99.90
39675;DHT22;27790;50.840;4.386;2022-11-15T02:09:44;14.10;99.90
39675;DHT22;27790;50.840;4.386;2022-11-15T02:12:13;14.10;99.90
39675;DHT22;27790;50.840;4.386;2022-11-15T02:14:43;14.00;99.90
39675;DHT22;27790;50.840;4.386;2022-11-15T02:17:31;14.00;99.90
39675;DHT22;27790;50.840;4.386;2022-11-15T02:39:27;13.90;99.90
39675;DHT22;27790;50.840;4.386;2022-11-15T02:41:53;13.90;99.90
39675;DHT22;27790;50.840;4.386;2022-11-15T02:44:32;13.80;99.90
39675;DHT22;27790;50.840;4.386;2022-11-15T02:47:01;13.90;99.90
39675;DHT22;27790;50.840;4.386;2022-11-15T02:50:04;13.90;99.90
39675;DHT22;27790;50.840;4.386;2022-11-15T02:52:31;13.90;99.90
39675;DHT22;27790;50.840;4.386;2022-11-15T02:54:59;13.90;99.90
39675;DHT22;27790;50.840;4.386;2022-11-15T03:00:06;13.90;99.90
39675;DHT22;27790;50.840;4.386;2022-11-15T03:13:33;13.80;99.90
39675;DHT22;27790;50.840;4.386;2022-11-15T03:16:06;13.80;99.90
39675;DHT22;27790;50.840;4.386;2022-11-15T03:18:42;13.80;99.90
39675;DHT22;27790;50.840;4.386;2022-11-15T03:21:10;13.70;99.90
39675;DHT22;27790;50.840;4.386;2022-11-15T03:23:38;13.70;99.90
39675;DHT22;27790;50.840;4.386;2022-11-15T03:26:07;13.70;99.90
39675;DHT22;27790;50.840;4.386;2022-11-15T03:28:41;13.70;99.90
39675;DHT22;27790;50.840;4.386;2022-11-15T03:31:08;13.80;99.90
39675;DHT22;27790;50.840;4.386;2022-11-15T03:33:48;13.80;99.90
39675;DHT22;27790;50.840;4.386;2022-11-15T03:36:15;13.80;99.90
39675;DHT22;27790;50.840;4.386;2022-11-15T03:38:41;13.80;99.90
39675;DHT22;27790;50.840;4.386;2022-11-15T03:41:35;13.80;99.90
39675;DHT22;27790;50.840;4.386;2022-11-15T03:44:17;13.70;99.90
39675;DHT22;27790;50.840;4.386;2022-11-15T03:49:35;13.70;99.90
39675;DHT22;27790;50.840;4.386;2022-11-15T03:52:03;13.70;99.90
39675;DHT22;27790;50.840;4.386;2022-11-15T03:54:30;13.60;99.90
39675;DHT22;27790;50.840;4.386;2022-11-15T03:56:55;13.60;99.90
39675;DHT22;27790;50.840;4.386;2022-11-15T03:59:21;13.60;99.90
39675;DHT22;27790;50.840;4.386;2022-11-15T04:01:47;13.60;99.90
39675;DHT22;27790;50.840;4.386;2022-11-15T04:04:13;13.50;99.90
39675;DHT22;27790;50.840;4.386;2022-11-15T04:06:38;13.60;99.90
39675;DHT22;27790;50.840;4.386;2022-11-15T04:09:04;13.60;99.90
39675;DHT22;27790;50.840;4.386;2022-11-15T04:11:29;13.50;99.90
39675;DHT22;27790;50.840;4.386;2022-11-15T04:13:55;13.50;99.90
39675;DHT22;27790;50.840;4.386;2022-11-15T04:16:21;13.50;99.90
39675;DHT22;27790;50.840;4.386;2022-11-15T04:18:46;13.40;99.90
39675;DHT22;27790;50.840;4.386;2022-11-15T04:21:32;13.40;99.90
39675;DHT22;27790;50.840;4.386;2022-11-15T04:24:08;13.50;99.90
39675;DHT22;27790;50.840;4.386;2022-11-15T04:26:40;13.50;99.90
39675;DHT22;27790;50.840;4.386;2022-11-15T04:29:05;13.50;99.90
39675;DHT22;27790;50.840;4.386;2022-11-15T04:31:42;13.50;99.90
39675;DHT22;27790;50.840;4.386;2022-11-15T04:34:07;13.50;99.90
39675;DHT22;27790;50.840;4.386;2022-11-15T04:36:33;13.40;99.90
39675;DHT22;27790;50.840;4.386;2022-11-15T04:39:10;13.40;99.90
39675;DHT22;27790;50.840;4.386;2022-11-15T04:41:35;13.30;99.90
39675;DHT22;27790;50.840;4.386;2022-11-15T04:44:01;13.30;99.90
39675;DHT22;27790;50.840;4.386;2022-11-15T04:46:27;13.30;99.90
39675;DHT22;27790;50.840;4.386;2022-11-15T04:48:53;13.20;99.90
39675;DHT22;27790;50.840;4.386;2022-11-15T04:51:19;13.10;99.90
39675;DHT22;27790;50.840;4.386;2022-11-15T04:53:44;13.00;99.90
39675;DHT22;27790;50.840;4.386;2022-11-15T04:56:10;12.90;99.90
39675;DHT22;27790;50.840;4.386;2022-11-15T04:58:36;12.90;99.90
39675;DHT22;27790;50.840;4.386;2022-11-15T05:01:09;12.90;99.90
39675;DHT22;27790;50.840;4.386;2022-11-15T05:03:34;12.80;99.90
39675;DHT22;27790;50.840;4.386;2022-11-15T05:06:10;12.80;99.90
39675;DHT22;27790;50.840;4.386;2022-11-15T05:08:35;12.80;99.90
39675;DHT22;27790;50.840;4.386;2022-11-15T05:11:01;12.80;99.90
39675;DHT22;27790;50.840;4.386;2022-11-15T05:13:26;12.70;99.90
39675;DHT22;27790;50.840;4.386;2022-11-15T05:15:52;12.70;99.90
39675;DHT22;27790;50.840;4.386;2022-11-15T05:18:17;12.60;99.90
39675;DHT22;27790;50.840;4.386;2022-11-15T05:20:43;12.60;99.90
39675;DHT22;27790;50.840;4.386;2022-11-15T05:23:08;12.50;99.90
39675;DHT22;27790;50.840;4.386;2022-11-15T05:25:36;12.50;99.90
39675;DHT22;27790;50.840;4.386;2022-11-15T05:28:01;12.40;99.90
39675;DHT22;27790;50.840;4.386;2022-11-15T05:30:27;12.40;99.90
39675;DHT22;27790;50.840;4.386;2022-11-15T05:32:53;12.40;99.90
39675;DHT22;27790;50.840;4.386;2022-11-15T05:35:29;12.30;99.90
39675;DHT22;27790;50.840;4.386;2022-11-15T05:37:56;12.30;99.90
39675;DHT22;27790;50.840;4.386;2022-11-15T05:40:21;12.20;99.90
39675;DHT22;27790;50.840;4.386;2022-11-15T05:42:47;12.20;99.90
39675;DHT22;27790;50.840;4.386;2022-11-15T05:45:13;12.10;99.90
39675;DHT22;27790;50.840;4.386;2022-11-15T05:47:39;12.10;99.90
39675;DHT22;27790;50.840;4.386;2022-11-15T05:50:06;12.10;99.90
39675;DHT22;27790;50.840;4.386;2022-11-15T05:52:34;12.00;99.90
39675;DHT22;27790;50.840;4.386;2022-11-15T05:55:02;12.00;99.90
39675;DHT22;27790;50.840;4.386;2022-11-15T05:57:29;12.00;99.90
39675;DHT22;27790;50.840;4.386;2022-11-15T05:59:55;11.90;99.90
39675;DHT22;27790;50.840;4.386;2022-11-15T06:02:21;12.00;99.90
39675;DHT22;27790;50.840;4.386;2022-11-15T06:04:47;12.00;99.90
39675;DHT22;27790;50.840;4.386;2022-11-15T06:07:12;12.10;99.90
39675;DHT22;27790;50.840;4.386;2022-11-15T06:09:38;12.00;99.90
39675;DHT22;27790;50.840;4.386;2022-11-15T06:12:03;11.90;99.90
39675;DHT22;27790;50.840;4.386;2022-11-15T06:14:29;11.90;99.90
39675;DHT22;27790;50.840;4.386;2022-11-15T06:16:55;11.80;99.90
39675;DHT22;27790;50.840;4.386;2022-11-15T06:19:20;11.80;99.90
39675;DHT22;27790;50.840;4.386;2022-11-15T06:21:46;11.70;99.90
39675;DHT22;27790;50.840;4.386;2022-11-15T06:24:12;11.60;99.90
39675;DHT22;27790;50.840;4.386;2022-11-15T06:26:37;11.60;99.90
39675;DHT22;27790;50.840;4.386;2022-11-15T06:29:03;11.60;99.90
39675;DHT22;27790;50.840;4.386;2022-11-15T06:31:29;11.50;99.90
39675;DHT22;27790;50.840;4.386;2022-11-15T06:33:55;11.50;99.90
39675;DHT22;27790;50.840;4.386;2022-11-15T06:36:21;11.40;99.90
39675;DHT22;27790;50.840;4.386;2022-11-15T06:38:46;11.50;99.90
39675;DHT22;27790;50.840;4.386;2022-11-15T06:41:13;11.40;99.90
39675;DHT22;27790;50.840;4.386;2022-11-15T06:43:39;11.50;99.90
39675;DHT22;27790;50.840;4.386;2022-11-15T06:46:06;11.40;99.90
39675;DHT22;27790;50.840;4.386;2022-11-15T06:48:32;11.40;99.90
39675;DHT22;27790;50.840;4.386;2022-11-15T06:51:00;11.40;99.90
39675;DHT22;27790;50.840;4.386;2022-11-15T06:53:27;11.40;99.90
39675;DHT22;27790;50.840;4.386;2022-11-15T06:55:53;11.30;99.90
39675;DHT22;27790;50.840;4.386;2022-11-15T06:58:21;11.30;99.90
39675;DHT22;27790;50.840;4.386;2022-11-15T07:00:46;11.30;99.90
39675;DHT22;27790;50.840;4.386;2022-11-15T07:03:12;11.30;99.90
39675;DHT22;27790;50.840;4.386;2022-11-15T07:05:38;11.30;99.90
39675;DHT22;27790;50.840;4.386;2022-11-15T07:08:03;11.30;99.90
39675;DHT22;27790;50.840;4.386;2022-11-15T07:10:29;11.30;99.90
39675;DHT22;27790;50.840;4.386;2022-11-15T07:12:55;11.30;99.90
39675;DHT22;27790;50.840;4.386;2022-11-15T07:15:24;11.30;99.90
39675;DHT22;27790;50.840;4.386;2022-11-15T07:17:50;11.30;99.90
39675;DHT22;27790;50.840;4.386;2022-11-15T07:20:16;11.30;99.90
39675;DHT22;27790;50.840;4.386;2022-11-15T07:22:42;11.30;99.90
39675;DHT22;27790;50.840;4.386;2022-11-15T07:25:10;11.30;99.90
39675;DHT22;27790;50.840;4.386;2022-11-15T07:27:36;11.30;99.90
39675;DHT22;27790;50.840;4.386;2022-11-15T07:30:02;11.40;99.90
39675;DHT22;27790;50.840;4.386;2022-11-15T07:32:28;11.40;99.90
39675;DHT22;27790;50.840;4.386;2022-11-15T07:34:54;11.50;99.90
39675;DHT22;27790;50.840;4.386;2022-11-15T07:37:19;11.50;99.90
39675;DHT22;27790;50.840;4.386;2022-11-15T07:39:45;11.50;99.90
39675;DHT22;27790;50.840;4.386;2022-11-15T07:42:10;11.70;99.90
39675;DHT22;27790;50.840;4.386;2022-11-15T07:44:46;11.60;99.90
39675;DHT22;27790;50.840;4.386;2022-11-15T07:47:12;11.60;99.90
39675;DHT22;27790;50.840;4.386;2022-11-15T07:49:37;11.60;99.90
39675;DHT22;27790;50.840;4.386;2022-11-15T07:52:03;11.60;99.90
39675;DHT22;27790;50.840;4.386;2022-11-15T07:54:29;11.70;99.90
39675;DHT22;27790;50.840;4.386;2022-11-15T07:56:54;11.80;99.90
39675;DHT22;27790;50.840;4.386;2022-11-15T07:59:20;11.80;99.90
39675;DHT22;27790;50.840;4.386;2022-11-15T08:01:45;11.80;99.90
39675;DHT22;27790;50.840;4.386;2022-11-15T08:04:11;11.90;99.90
39675;DHT22;27790;50.840;4.386;2022-11-15T08:06:37;12.00;99.90
39675;DHT22;27790;50.840;4.386;2022-11-15T08:09:03;12.10;99.90
39675;DHT22;27790;50.840;4.386;2022-11-15T08:11:30;12.20;99.90
39675;DHT22;27790;50.840;4.386;2022-11-15T08:13:56;12.20;99.90
39675;DHT22;27790;50.840;4.386;2022-11-15T08:16:21;12.30;99.90
39675;DHT22;27790;50.840;4.386;2022-11-15T08:18:47;12.50;99.90
39675;DHT22;27790;50.840;4.386;2022-11-15T08:21:16;12.60;99.90
39675;DHT22;27790;50.840;4.386;2022-11-15T08:23:43;12.60;99.90
39675;DHT22;27790;50.840;4.386;2022-11-15T08:26:09;12.60;99.90
39675;DHT22;27790;50.840;4.386;2022-11-15T08:28:34;12.50;99.90
39675;DHT22;27790;50.840;4.386;2022-11-15T08:31:00;12.50;99.90
39675;DHT22;27790;50.840;4.386;2022-11-15T08:33:26;12.50;99.90
39675;DHT22;27790;50.840;4.386;2022-11-15T08:35:56;12.50;99.90
39675;DHT22;27790;50.840;4.386;2022-11-15T08:38:22;12.50;99.90
39675;DHT22;27790;50.840;4.386;2022-11-15T08:40:47;12.50;99.90
39675;DHT22;27790;50.840;4.386;2022-11-15T08:43:13;12.50;99.90
39675;DHT22;27790;50.840;4.386;2022-11-15T08:45:38;12.50;99.90
39675;DHT22;27790;50.840;4.386;2022-11-15T08:48:04;12.40;99.90
39675;DHT22;27790;50.840;4.386;2022-11-15T08:50:31;12.40;99.90
39675;DHT22;27790;50.840;4.386;2022-11-15T08:52:57;12.50;99.90
39675;DHT22;27790;50.840;4.386;2022-11-15T08:55:23;12.40;99.90
39675;DHT22;27790;50.840;4.386;2022-11-15T08:57:48;12.50;99.90
39675;DHT22;27790;50.840;4.386;2022-11-15T09:00:14;12.40;99.90
39675;DHT22;27790;50.840;4.386;2022-11-15T09:02:40;12.40;99.90
39675;DHT22;27790;50.840;4.386;2022-11-15T09:05:06;12.50;99.90
39675;DHT22;27790;50.840;4.386;2022-11-15T09:07:32;12.60;99.90
39675;DHT22;27790;50.840;4.386;2022-11-15T09:09:57;12.70;99.90
39675;DHT22;27790;50.840;4.386;2022-11-15T09:12:24;12.70;99.90
39675;DHT22;27790;50.840;4.386;2022-11-15T09:14:49;12.80;99.90
39675;DHT22;27790;50.840;4.386;2022-11-15T09:17:15;12.80;99.90
39675;DHT22;27790;50.840;4.386;2022-11-15T09:19:41;12.80;99.90
39675;DHT22;27790;50.840;4.386;2022-11-15T09:22:07;12.90;99.90
39675;DHT22;27790;50.840;4.386;2022-11-15T09:24:33;12.80;99.90
39675;DHT22;27790;50.840;4.386;2022-11-15T09:26:59;12.80;99.90
39675;DHT22;27790;50.840;4.386;2022-11-15T09:29:24;12.80;99.90
39675;DHT22;27790;50.840;4.386;2022-11-15T09:31:52;12.90;99.90
39675;DHT22;27790;50.840;4.386;2022-11-15T09:34:18;13.00;99.90
39675;DHT22;27790;50.840;4.386;2022-11-15T09:36:43;13.00;99.90
39675;DHT22;27790;50.840;4.386;2022-11-15T09:39:09;13.10;99.90
39675;DHT22;27790;50.840;4.386;2022-11-15T09:49:54;13.40;99.90
39675;DHT22;27790;50.840;4.386;2022-11-15T09:52:22;13.40;99.90
39675;DHT22;27790;50.840;4.386;2022-11-15T09:54:50;13.40;99.90
39675;DHT22;27790;50.840;4.386;2022-11-15T09:57:20;13.40;99.90
39675;DHT22;27790;50.840;4.386;2022-11-15T10:05:20;13.40;99.90
39675;DHT22;27790;50.840;4.386;2022-11-15T10:08:01;13.30;99.90
39675;DHT22;27790;50.840;4.386;2022-11-15T10:13:22;13.40;99.90
39675;DHT22;27790;50.840;4.386;2022-11-15T10:15:49;13.40;99.90
39675;DHT22;27790;50.840;4.386;2022-11-15T10:18:19;13.50;99.90
39675;DHT22;27790;50.840;4.386;2022-11-15T10:20:51;13.40;99.90
39675;DHT22;27790;50.840;4.386;2022-11-15T10:23:20;13.50;99.90
39675;DHT22;27790;50.840;4.386;2022-11-15T10:25:46;13.50;99.90
39675;DHT22;27790;50.840;4.386;2022-11-15T10:28:21;13.60;99.90
39675;DHT22;27790;50.840;4.386;2022-11-15T10:30:53;13.50;99.90
39675;DHT22;27790;50.840;4.386;2022-11-15T10:33:26;13.70;99.90
39675;DHT22;27790;50.840;4.386;2022-11-15T10:38:28;13.80;99.90
39675;DHT22;27790;50.840;4.386;2022-11-15T10:41:06;13.80;99.90
39675;DHT22;27790;50.840;4.386;2022-11-15T10:43:32;13.90;99.90
39675;DHT22;27790;50.840;4.386;2022-11-15T10:46:18;13.90;99.90
39675;DHT22;27790;50.840;4.386;2022-11-15T10:48:44;14.00;99.90
39675;DHT22;27790;50.840;4.386;2022-11-15T10:51:27;14.00;99.90
39675;DHT22;27790;50.840;4.386;2022-11-15T10:53:55;14.10;99.90
39675;DHT22;27790;50.840;4.386;2022-11-15T10:56:24;14.20;99.90
39675;DHT22;27790;50.840;4.386;2022-11-15T10:58:56;14.40;99.90
39675;DHT22;27790;50.840;4.386;2022-11-15T11:01:27;14.30;99.90
39675;DHT22;27790;50.840;4.386;2022-11-15T11:04:08;14.50;99.90
39675;DHT22;27790;50.840;4.386;2022-11-15T11:07:08;14.50;99.90
39675;DHT22;27790;50.840;4.386;2022-11-15T11:09:38;14.50;99.90
39675;DHT22;27790;50.840;4.386;2022-11-15T11:12:10;14.40;99.90
39675;DHT22;27790;50.840;4.386;2022-11-15T11:14:37;14.40;99.90
39675;DHT22;27790;50.840;4.386;2022-11-15T11:17:16;14.40;99.90
39675;DHT22;27790;50.840;4.386;2022-11-15T11:22:39;14.50;99.90
39675;DHT22;27790;50.840;4.386;2022-11-15T11:28:01;14.80;99.90
39675;DHT22;27790;50.840;4.386;2022-11-15T11:49:08;15.00;99.50
39675;DHT22;27790;50.840;4.386;2022-11-15T11:51:42;15.10;99.50
39675;DHT22;27790;50.840;4.386;2022-11-15T12:02:31;15.20;99.60
39675;DHT22;27790;50.840;4.386;2022-11-15T12:05:16;15.20;99.70
39675;DHT22;27790;50.840;4.386;2022-11-15T12:07:45;15.20;99.70
39675;DHT22;27790;50.840;4.386;2022-11-15T12:12:58;15.20;99.60
39675;DHT22;27790;50.840;4.386;2022-11-15T12:15:39;15.20;99.70
39675;DHT22;27790;50.840;4.386;2022-11-15T12:18:09;15.30;99.80
39675;DHT22;27790;50.840;4.386;2022-11-15T12:20:40;15.30;99.80
39675;DHT22;27790;50.840;4.386;2022-11-15T12:23:11;15.30;99.90
39675;DHT22;27790;50.840;4.386;2022-11-15T12:25:54;15.20;99.90
39675;DHT22;27790;50.840;4.386;2022-11-15T12:28:26;15.10;99.90
39675;DHT22;27790;50.840;4.386;2022-11-15T12:33:38;15.00;99.90
39675;DHT22;27790;50.840;4.386;2022-11-15T12:36:30;15.00;99.90
39675;DHT22;27790;50.840;4.386;2022-11-15T12:38:58;15.10;99.90
39675;DHT22;27790;50.840;4.386;2022-11-15T12:41:32;15.20;99.90
39675;DHT22;27790;50.840;4.386;2022-11-15T12:43:59;15.30;99.90
39675;DHT22;27790;50.840;4.386;2022-11-15T12:49:09;15.20;99.90
39675;DHT22;27790;50.840;4.386;2022-11-15T13:17:38;15.50;99.90
39675;DHT22;27790;50.840;4.386;2022-11-15T13:20:18;15.60;99.90
39675;DHT22;27790;50.840;4.386;2022-11-15T13:22:47;15.60;99.90
39675;DHT22;27790;50.840;4.386;2022-11-15T13:25:30;15.50;99.90
39675;DHT22;27790;50.840;4.386;2022-11-15T13:35:55;15.40;99.90
39675;DHT22;27790;50.840;4.386;2022-11-15T13:38:25;15.50;99.90
39675;DHT22;27790;50.840;4.386;2022-11-15T13:40:55;15.50;99.90
39675;DHT22;27790;50.840;4.386;2022-11-15T13:46:04;15.30;99.90
39675;DHT22;27790;50.840;4.386;2022-11-15T13:48:30;15.30;99.90
39675;DHT22;27790;50.840;4.386;2022-11-15T13:50:56;15.40;99.90
39675;DHT22;27790;50.840;4.386;2022-11-15T13:53:23;15.30;99.90
39675;DHT22;27790;50.840;4.386;2022-11-15T13:55:49;15.40;99.90
39675;DHT22;27790;50.840;4.386;2022-11-15T13:58:15;15.40;99.90
39675;DHT22;27790;50.840;4.386;2022-11-15T14:00:45;15.40;99.90
39675;DHT22;27790;50.840;4.386;2022-11-15T14:03:19;15.40;99.90
39675;DHT22;27790;50.840;4.386;2022-11-15T14:06:10;15.40;99.90
39675;DHT22;27790;50.840;4.386;2022-11-15T14:11:19;15.40;99.90
39675;DHT22;27790;50.840;4.386;2022-11-15T14:16:39;15.30;99.90
39675;DHT22;27790;50.840;4.386;2022-11-15T14:19:08;15.20;99.90
39675;DHT22;27790;50.840;4.386;2022-11-15T14:21:34;15.20;99.90
39675;DHT22;27790;50.840;4.386;2022-11-15T14:24:15;15.20;99.90
39675;DHT22;27790;50.840;4.386;2022-11-15T14:26:41;15.20;99.90
39675;DHT22;27790;50.840;4.386;2022-11-15T14:32:27;15.20;99.90
39675;DHT22;27790;50.840;4.386;2022-11-15T14:34:58;15.20;99.90
39675;DHT22;27790;50.840;4.386;2022-11-15T14:39:52;15.10;99.90
39675;DHT22;27790;50.840;4.386;2022-11-15T14:42:19;15.10;99.90
39675;DHT22;27790;50.840;4.386;2022-11-15T14:44:45;15.10;99.90
39675;DHT22;27790;50.840;4.386;2022-11-15T14:47:14;15.10;99.90
39675;DHT22;27790;50.840;4.386;2022-11-15T14:49:40;15.00;99.90
39675;DHT22;27790;50.840;4.386;2022-11-15T14:54:45;15.00;99.90
39675;DHT22;27790;50.840;4.386;2022-11-15T14:57:10;15.00;99.90
39675;DHT22;27790;50.840;4.386;2022-11-15T14:59:36;15.00;99.90
39675;DHT22;27790;50.840;4.386;2022-11-15T15:02:01;15.00;99.90
39675;DHT22;27790;50.840;4.386;2022-11-15T15:04:27;15.00;99.90
39675;DHT22;27790;50.840;4.386;2022-11-15T15:06:52;15.00;99.90
39675;DHT22;27790;50.840;4.386;2022-11-15T15:09:18;14.90;99.90
39675;DHT22;27790;50.840;4.386;2022-11-15T15:11:43;14.90;99.90
39675;DHT22;27790;50.840;4.386;2022-11-15T15:14:10;15.00;99.90
39675;DHT22;27790;50.840;4.386;2022-11-15T15:16:35;14.90;99.90
39675;DHT22;27790;50.840;4.386;2022-11-15T15:19:01;14.90;99.90
39675;DHT22;27790;50.840;4.386;2022-11-15T15:21:28;14.90;99.90
39675;DHT22;27790;50.840;4.386;2022-11-15T15:23:56;14.80;99.90
39675;DHT22;27790;50.840;4.386;2022-11-15T15:26:25;14.70;99.90
39675;DHT22;27790;50.840;4.386;2022-11-15T15:28:51;14.70;99.90
39675;DHT22;27790;50.840;4.386;2022-11-15T15:31:17;14.70;99.90
39675;DHT22;27790;50.840;4.386;2022-11-15T15:33:43;14.70;99.90
39675;DHT22;27790;50.840;4.386;2022-11-15T15:36:11;14.60;99.90
39675;DHT22;27790;50.840;4.386;2022-11-15T15:38:37;14.60;99.90
39675;DHT22;27790;50.840;4.386;2022-11-15T15:41:10;14.60;99.90
39675;DHT22;27790;50.840;4.386;2022-11-15T15:43:36;14.50;99.90
39675;DHT22;27790;50.840;4.386;2022-11-15T15:46:01;14.50;99.90
39675;DHT22;27790;50.840;4.386;2022-11-15T15:48:27;14.50;99.90
39675;DHT22;27790;50.840;4.386;2022-11-15T15:50:52;14.50;99.90
39675;DHT22;27790;50.840;4.386;2022-11-15T15:53:18;14.50;99.90
39675;DHT22;27790;50.840;4.386;2022-11-15T15:55:43;14.40;99.90
39675;DHT22;27790;50.840;4.386;2022-11-15T15:58:09;14.40;99.90
39675;DHT22;27790;50.840;4.386;2022-11-15T16:00:35;14.40;99.90
39675;DHT22;27790;50.840;4.386;2022-11-15T16:03:01;14.40;99.90
39675;DHT22;27790;50.840;4.386;2022-11-15T16:05:27;14.30;99.90
39675;DHT22;27790;50.840;4.386;2022-11-15T16:07:52;14.40;99.90
39675;DHT22;27790;50.840;4.386;2022-11-15T16:10:31;14.30;99.90
39675;DHT22;27790;50.840;4.386;2022-11-15T16:12:57;14.30;99.90
39675;DHT22;27790;50.840;4.386;2022-11-15T16:15:25;14.30;99.90
39675;DHT22;27790;50.840;4.386;2022-11-15T16:17:53;14.30;99.90
39675;DHT22;27790;50.840;4.386;2022-11-15T16:23:03;14.30;99.90
39675;DHT22;27790;50.840;4.386;2022-11-15T16:25:29;14.40;99.90
39675;DHT22;27790;50.840;4.386;2022-11-15T16:27:55;14.40;99.90
39675;DHT22;27790;50.840;4.386;2022-11-15T16:30:22;14.30;99.90
39675;DHT22;27790;50.840;4.386;2022-11-15T16:32:47;14.30;99.90
39675;DHT22;27790;50.840;4.386;2022-11-15T16:35:14;14.30;99.90
39675;DHT22;27790;50.840;4.386;2022-11-15T16:37:41;14.30;99.90
39675;DHT22;27790;50.840;4.386;2022-11-15T16:42:56;14.30;99.90
39675;DHT22;27790;50.840;4.386;2022-11-15T16:45:22;14.30;99.90
39675;DHT22;27790;50.840;4.386;2022-11-15T16:47:48;14.20;99.90
39675;DHT22;27790;50.840;4.386;2022-11-15T16:50:21;14.30;99.90
39675;DHT22;27790;50.840;4.386;2022-11-15T16:52:52;14.20;99.90
39675;DHT22;27790;50.840;4.386;2022-11-15T16:55:19;14.20;99.90
39675;DHT22;27790;50.840;4.386;2022-11-15T16:57:44;14.20;99.90
39675;DHT22;27790;50.840;4.386;2022-11-15T17:00:11;14.20;99.90
39675;DHT22;27790;50.840;4.386;2022-11-15T17:02:38;14.20;99.90
39675;DHT22;27790;50.840;4.386;2022-11-15T17:05:04;14.20;99.90
39675;DHT22;27790;50.840;4.386;2022-11-15T17:07:29;14.20;99.90
39675;DHT22;27790;50.840;4.386;2022-11-15T17:09:55;14.20;99.90
39675;DHT22;27790;50.840;4.386;2022-11-15T17:12:20;14.20;99.90
39675;DHT22;27790;50.840;4.386;2022-11-15T17:14:46;14.20;99.90
39675;DHT22;27790;50.840;4.386;2022-11-15T17:17:11;14.30;99.90
39675;DHT22;27790;50.840;4.386;2022-11-15T17:19:37;14.30;99.90
39675;DHT22;27790;50.840;4.386;2022-11-15T17:22:03;14.30;99.90
39675;DHT22;27790;50.840;4.386;2022-11-15T17:24:28;14.40;99.90
39675;DHT22;27790;50.840;4.386;2022-11-15T17:26:54;14.30;99.90
39675;DHT22;27790;50.840;4.386;2022-11-15T17:29:19;14.30;99.90
39675;DHT22;27790;50.840;4.386;2022-11-15T17:31:45;14.20;99.90
39675;DHT22;27790;50.840;4.386;2022-11-15T17:34:10;14.20;99.90
39675;DHT22;27790;50.840;4.386;2022-11-15T17:36:36;14.20;99.90
39675;DHT22;27790;50.840;4.386;2022-11-15T17:39:02;14.20;99.90
39675;DHT22;27790;50.840;4.386;2022-11-15T17:41:28;14.20;99.90
39675;DHT22;27790;50.840;4.386;2022-11-15T17:43:58;14.30;99.90
39675;DHT22;27790;50.840;4.386;2022-11-15T17:46:24;14.20;99.90
39675;DHT22;27790;50.840;4.386;2022-11-15T17:48:50;14.30;99.90
39675;DHT22;27790;50.840;4.386;2022-11-15T17:51:17;14.30;99.90
39675;DHT22;27790;50.840;4.386;2022-11-15T17:53:46;14.30;99.90
39675;DHT22;27790;50.840;4.386;2022-11-15T17:56:14;14.20;99.90
39675;DHT22;27790;50.840;4.386;2022-11-15T17:58:40;14.20;99.90
39675;DHT22;27790;50.840;4.386;2022-11-15T18:03:43;14.20;99.90
39675;DHT22;27790;50.840;4.386;2022-11-15T18:06:09;14.20;99.90
39675;DHT22;27790;50.840;4.386;2022-11-15T18:08:35;14.20;99.90
39675;DHT22;27790;50.840;4.386;2022-11-15T18:11:20;14.20;99.90
39675;DHT22;27790;50.840;4.386;2022-11-15T18:13:49;14.20;99.90